Weather observations for the past three days for
Salida - Monarch Pass
Metric (Imperial)
Date Time (mdt) Wind (kph) Vis. (km) Weather Sky Cond. Temperature (ºC) Relative Humidity Wind Chill (°C) Heat Index (°C) Pressure Precipitation (cm)
Air Dwpt 6 hour altimeter (cm) sea level (mb) 1 hr 3 hr 6 hr
Max. Min.
10 10:15 W 6 16.09 Fair CLR 2 -2 75% 77.67 0.0
10 09:55 Calm 16.09 Fair CLR 2 -2 75% 77.65 0.0
10 09:35 SE 9 16.09 Partly Cloudy SCT011 1 -1 87% -2 77.65 0.0
10 09:15 SE 9 16.09 Fair CLR 0 -1 93% -3 77.62 0.0
10 08:55 E 13 16.09 Fair CLR 0 -1 93% -4 77.62 0.0
10 08:35 Calm 16.09 Fair CLR 0 -5 69% 77.6 0.0
10 08:15 NW 9 16.09 Partly Cloudy SCT001 -2 -2 100% -5 77.57 0.0
10 07:55 E 6 0.00 Mostly Cloudy BKN002 -1 -1 100% 77.57 0.0
10 07:35 E 11 0.00 Overcast OVC002 -2 -2 100% -6 77.55 0.0
10 07:15 E 17 0.00 Overcast OVC002 -2 -2 100% -7 77.52 0.0
10 06:55 E 19 0.00 Overcast OVC002 -2 -2 100% -7 77.52 0.0
10 06:35 E 22 0.00 Overcast OVC002 -1 -1 100% -6 77.5 0.0
10 06:15 E 22 0.00 Overcast OVC002 -1 -1 100% -6 77.5 0.0
10 05:55 E 26 0.00 Overcast OVC002 -1 -1 100% -7 77.47 0.0
10 05:35 E 30 0.00 Overcast OVC002 -1 -1 100% -7 77.44 0.0
10 05:15 E 31 0.00 Overcast OVC002 -1 -1 100% -7 77.42 0.0
10 04:55 E 37 0.00 Overcast and Breezy OVC002 -1 -1 100% -8 77.42 0.0
10 04:35 E 33 0.00 Overcast and Breezy OVC002 -1 -1 100% -8 77.42 0.0
10 04:15 E 35 0.24 Freezing Fog and Breezy OVC002 -1 -1 100% -8 77.42 0.0
10 03:55 E 35 0.24 Freezing Fog and Breezy OVC002 -1 -1 100% -8 77.42 0.0
10 03:35 E 37 0.24 Freezing Fog and Breezy OVC002 -1 -1 100% -8 77.39 0.0
10 03:15 E 41 0.24 Freezing Fog and Breezy OVC002 -1 -1 100% -8 77.37 0.0
10 02:55 E 41 0.24 Freezing Fog and Breezy OVC002 -1 -1 100% -8 77.37 0.0
10 02:35 E 39 0.24 Freezing Fog and Breezy OVC002 0 -1 93% -7 77.39 0.0
10 02:15 E 41 0.80 Freezing Fog and Breezy OVC002 0 -1 93% -7 77.37 0.0
10 01:55 E 44 16.09 Mostly Cloudy and Windy SCT004 BKN009 BKN013 0 -2 87% -7 77.37 0.0
10 01:35 E 48 16.09 Fair and Windy CLR 0 -5 69% -8 77.34 0.0
10 01:15 E 39 16.09 Fair and Breezy CLR 0 -6 64% -7 77.37 0.0
10 00:55 E 35 16.09 Fair and Breezy CLR 1 -7 56% -5 77.37 0.0
10 00:35 E 31 16.09 Fair CLR 1 -8 51% -5 77.39 0.0
10 00:15 E 28 16.09 Fair CLR 2 -9 44% -3 77.39 0.0
09 23:55 E 24 16.09 Partly Cloudy SCT090 2 -11 38% -3 77.39 0.0
09 23:35 E 31 G 37 16.09 Fair CLR 3 -12 33% -2 77.37 0.0
09 23:15 NE 13 16.09 Fair CLR 3 -12 33% 0 77.42 0.0
09 22:55 NE 11 16.09 Partly Cloudy SCT080 3 -13 30% 0 77.42 0.0
09 22:35 NE 15 16.09 Fair CLR 3 -14 28% -0 77.42 0.0
09 22:15 NE 13 16.09 Fair CLR 3 -15 26% 0 77.42 0.0
09 21:55 N 19 16.09 Fair CLR 4 -15 24% 0 77.42 0.0
09 21:35 N 26 G 33 16.09 Fair CLR 3 -15 26% -2 77.42 0.0
09 21:15 NW 28 G 35 16.09 Fair CLR 4 -15 24% -1 77.39 0.0
09 20:55 NW 26 16.09 Fair CLR 4 -15 24% -0 77.37 0.0
09 20:35 NW 28 16.09 Fair CLR 4 -16 22% -1 77.34 0.0
09 20:15 NW 28 G 37 16.09 Fair CLR 5 -16 20% 1 77.34 0.0
09 19:55 NW 28 G 43 16.09 Fair CLR 5 -16 20% 1 77.32 0.0
09 19:35 NW 28 G 41 16.09 Fair CLR 5 -15 22% 1 77.29 0.0
09 19:15 NW 37 G 44 16.09 Fair and Breezy CLR 5 -15 22% -0 77.29 0.0
09 18:55 NW 31 16.09 Fair CLR 6 -13 24% 2 77.29 0.0
09 18:35 NW 37 G 46 16.09 Fair and Breezy CLR 6 -13 24% 1 77.27 0.0
09 18:15 NW 35 G 56 16.09 Fair and Breezy CLR 6 -13 24% 1 77.29 0.0
09 17:55 NW 39 G 65 16.09 Fair and Breezy CLR 6 -13 24% 1 77.29 0.0
09 17:35 NW 44 G 57 16.09 Fair and Windy CLR 6 -11 29% 1 77.27 0.0
09 17:15 NW 56 G 65 16.09 Partly Cloudy and Windy SCT080 7 -11 27% 2 77.24 0.0
09 16:55 NW 48 G 56 16.09 Fair and Windy CLR 7 -10 29% 2 77.27 0.0
09 16:35 NW 50 G 59 16.09 Partly Cloudy and Windy SCT110 7 -11 27% 2 77.24 0.0
09 16:15 NW 56 G 72 16.09 Partly Cloudy and Windy SCT110 7 -10 29% 2 77.24 0.0
09 15:55 NW 61 G 69 16.09 Partly Cloudy and Windy SCT100 7 -11 27% 1 77.24 0.0
09 15:35 NW 56 G 65 16.09 Mostly Cloudy and Windy SCT090 BKN110 7 -11 27% 2 77.24 0.0
09 15:15 NW 52 G 72 16.09 Overcast and Windy OVC085 7 -11 27% 2 77.27 0.0
09 14:55 NW 48 G 67 16.09 Overcast and Windy BKN085 OVC110 6 -10 31% 1 77.29 0.0
09 14:35 NW 50 G 65 16.09 Mostly Cloudy and Windy SCT085 BKN100 BKN120 7 -10 29% 2 77.29 0.0
09 14:15 W 41 G 54 16.09 Mostly Cloudy and Breezy SCT075 BKN085 7 -9 31% 2 77.29 0.0
09 13:55 NW 37 G 50 16.09 Partly Cloudy and Breezy SCT075 7 -9 31% 3 77.32 0.0
09 13:35 NW 57 G 74 16.09 Partly Cloudy and Windy SCT075 7 -9 31% 1 77.29 0.0
09 13:15 NW 46 G 69 16.09 Fair and Windy CLR 7 -10 29% 2 77.32 0.0
09 12:55 NW 50 G 76 16.09 Partly Cloudy and Windy SCT075 6 -7 39% 0 77.29 0.0
09 12:35 NW 33 G 67 16.09 Partly Cloudy and Breezy SCT055 SCT065 6 -7 39% 1 77.29 0.0
09 12:15 NW 46 G 63 16.09 Partly Cloudy and Windy SCT060 SCT070 6 -6 42% 1 77.29 0.0
09 11:55 NW 52 G 65 16.09 Fair and Windy CLR 5 -6 45% -1 77.29 0.0
09 11:35 NW 46 G 69 16.09 Fair and Windy CLR 5 -6 45% -1 77.29 0.0
09 11:15 W 39 G 69 16.09 Fair and Breezy CLR 5 -6 45% -0 77.29 0.0
09 10:55 NW 50 G 70 16.09 Fair and Windy CLR 4 -6 48% -2 77.29 0.0
09 10:35 W 56 G 69 16.09 Fair and Windy CLR 3 -6 52% -4 77.27 0.0
09 10:15 NW 44 G 65 16.09 Fair and Windy CLR 3 -6 52% -3 77.29 0.0
09 09:55 W 30 G 46 16.09 Fair CLR 3 -6 52% -2 77.29 0.0
09 09:35 W 39 G 44 16.09 Fair and Breezy CLR 2 -5 60% -4 77.27 0.0
09 09:15 NW 46 G 54 16.09 Fair and Windy CLR 1 -5 65% -6 77.29 0.0
09 08:55 W 41 G 48 16.09 Fair and Breezy CLR 1 -5 65% -6 77.27 0.0
09 08:35 W 33 G 43 16.09 Fair and Breezy CLR 1 -6 60% -5 77.27 0.0
09 08:15 NW 28 16.09 Fair CLR 1 -6 60% -5 77.27 0.0
09 07:55 NW 35 16.09 Fair and Breezy CLR 0 -6 64% -7 77.24 0.0
09 07:35 W 43 16.09 Fair and Windy CLR 0 -6 64% -7 77.24 0.0
09 07:15 NW 44 16.09 Fair and Windy CLR 0 -6 64% -7 77.22 0.0
09 06:55 NW 41 16.09 Fair and Breezy CLR 0 -6 64% -7 77.22 0.0
09 06:35 NW 46 G 52 16.09 Fair and Windy CLR 0 -6 64% -7 77.19 0.0
09 06:15 NW 48 16.09 Fair and Windy CLR 0 -6 64% -8 77.17 0.0
09 05:55 NW 44 16.09 Fair and Windy CLR 0 -6 64% -7 77.17 0.0
09 05:35 NW 48 16.09 Fair and Windy CLR 0 -6 64% -8 77.14 0.0
09 05:15 W 48 16.09 Fair and Windy CLR 0 -6 64% -8 77.14 0.0
09 04:55 NW 52 16.09 Fair and Windy CLR 0 -6 64% -8 77.11 0.0
09 04:35 NW 46 16.09 Fair and Windy CLR 0 -6 64% -7 77.11 0.0
09 04:15 NW 48 16.09 Fair and Windy CLR 0 -6 64% -8 77.14 0.0
09 03:55 W 50 16.09 Fair and Windy CLR 1 -6 60% -6 77.11 0.0
09 03:35 W 48 16.09 Fair and Windy CLR 1 -6 60% -6 77.11 0.0
09 03:15 W 48 16.09 Fair and Windy CLR 1 -6 60% -6 77.14 0.0
09 02:55 NW 41 16.09 Fair and Breezy CLR 1 -7 56% -6 77.17 0.0
09 02:35 W 31 16.09 Fair CLR 1 -7 56% -5 77.19 0.0
09 02:15 NW 43 16.09 Fair and Windy CLR 2 -6 56% -4 77.19 0.0
09 01:55 NW 39 16.09 Fair and Breezy CLR 2 -7 52% -4 77.19 0.0
09 01:35 W 37 16.09 Fair and Breezy CLR 2 -7 52% -4 77.24 0.0
09 01:15 W 35 16.09 Fair and Breezy CLR 2 -7 52% -4 77.24 0.0
09 00:55 W 33 16.09 Partly Cloudy and Breezy SCT065 2 -7 52% -4 77.27 0.0
09 00:35 W 31 16.09 Mostly Cloudy BKN065 2 -7 52% -4 77.29 0.0
09 00:15 W 30 16.09 Mostly Cloudy BKN065 2 -7 52% -3 77.29 0.0
08 23:55 NW 28 16.09 Mostly Cloudy BKN065 3 -7 48% -2 77.29 0.0
08 23:35 W 28 16.09 Partly Cloudy SCT065 3 -7 48% -2 77.29 0.0
08 23:15 NW 33 16.09 Fair and Breezy CLR 3 -7 48% -2 77.32 0.0
08 22:55 NW 33 16.09 Fair and Breezy CLR 3 -7 48% -2 77.34 0.0
08 22:35 NW 37 16.09 Fair and Breezy CLR 3 -7 48% -3 77.34 0.0
08 22:15 NW 37 16.09 Fair and Breezy CLR 3 -7 48% -3 77.34 0.0
08 21:55 NW 39 G 50 16.09 Fair and Breezy CLR 3 -7 48% -3 77.34 0.0
08 21:35 NW 43 16.09 Fair and Windy CLR 3 -7 48% -3 77.32 0.0
08 21:15 NW 39 G 44 16.09 Fair and Breezy CLR 4 -7 45% -2 77.29 0.0
08 20:55 NW 37 G 46 16.09 Fair and Breezy CLR 4 -7 45% -1 77.29 0.0
08 20:35 NW 35 G 52 16.09 Fair and Breezy CLR 5 -8 39% 0 77.29 0.0
08 20:15 NW 46 16.09 Fair and Windy CLR 5 -7 42% -1 77.24 0.0
08 19:55 W 56 16.09 Partly Cloudy and Windy SCT070 5 -7 42% -1 77.24 0.0
08 19:36 W 48 G 59 16.09 Partly Cloudy and Windy SCT070 6 -7 39% 1 77.24 0.0
08 19:15 NW 46 G 54 16.09 Partly Cloudy and Windy SCT070 6 -7 39% 1 77.24 0.0
08 18:55 NW 44 G 67 16.09 Fair and Windy CLR 6 -8 36% 1 77.24 0.0
08 18:35 NW 54 G 70 16.09 Partly Cloudy and Windy SCT070 7 -8 34% 2 77.22 0.0
08 18:15 W 44 G 65 16.09 Partly Cloudy and Windy SCT070 7 -8 34% 2 77.22 0.0
08 17:55 W 46 G 57 16.09 Partly Cloudy and Windy SCT070 SCT080 7 -7 37% 2 77.22 0.0
08 17:35 W 63 G 76 16.09 Mostly Cloudy and Windy BKN070 BKN080 7 -7 37% 1 77.19 0.0
08 17:15 W 46 G 70 16.09 Mostly Cloudy and Windy SCT070 BKN080 7 -7 37% 2 77.19 0.0
08 16:55 W 37 G 69 16.09 Mostly Cloudy and Breezy BKN070 BKN080 7 -7 37% 3 77.19 0.0
08 16:35 NW 54 G 70 16.09 Mostly Cloudy and Windy BKN060 7 -7 37% 2 77.19 0.0
08 16:15 W 48 G 57 16.09 Mostly Cloudy and Windy SCT060 BKN070 BKN090 7 -6 39% 2 77.19 0.0
08 15:55 NW 20 G 50 16.09 Mostly Cloudy BKN070 BKN080 8 -7 34% 5 77.22 0.0
08 15:35 W 24 G 61 16.09 Mostly Cloudy SCT060 BKN070 7 -6 39% 4 77.22 0.0
08 15:15 W 24 G 52 16.09 Mostly Cloudy SCT070 BKN080 7 -6 39% 4 77.22 0.0
08 14:55 NW 43 G 59 16.09 Partly Cloudy and Windy SCT065 6 -6 42% 1 77.24 0.0
08 14:35 NW 31 G 44 16.09 Partly Cloudy SCT060 SCT080 7 -7 37% 3 77.24 0.0
08 14:15 NW 35 G 52 16.09 Mostly Cloudy and Breezy SCT060 BKN080 6 -7 39% 1 77.24 0.0
08 13:55 W 41 G 56 16.09 Partly Cloudy and Breezy SCT060 6 -6 42% 1 77.24 0.0
08 13:35 NW 39 G 56 16.09 Fair and Breezy CLR 6 -6 42% 1 77.24 0.0
08 13:15 NW 39 G 61 16.09 Partly Cloudy and Breezy SCT060 6 -6 42% 1 77.22 0.0
08 12:55 NW 44 G 52 16.09 Partly Cloudy and Windy SCT050 5 -5 49% -1 77.22 0.0
08 12:35 W 30 G 48 16.09 Partly Cloudy BKN050 SCT060 5 -5 49% 0 77.24 0.0
08 12:15 W 31 G 46 16.09 Mostly Cloudy SCT042 BKN050 BKN060 5 -5 49% 0 77.24 0.0
08 11:55 W 43 G 54 16.09 Mostly Cloudy and Windy SCT041 BKN048 BKN060 4 -4 56% -2 77.24 0.0
08 11:35 NW 35 G 44 16.09 Partly Cloudy and Breezy SCT040 SCT048 3 -4 60% -3 77.24 0.0
08 11:15 W 30 G 43 16.09 Partly Cloudy SCT039 SCT047 SCT050 3 -3 65% -2 77.24 0.0
08 10:55 W 28 G 39 16.09 Mostly Cloudy SCT034 BKN041 BKN047 3 -4 60% -2 77.24 0.0
08 10:35 W 33 G 41 16.09 Mostly Cloudy and Breezy SCT031 BKN042 BKN049 2 -4 65% -4 77.24 0.0
08 10:15 W 24 G 43 16.09 Mostly Cloudy SCT031 BKN041 BKN047 2 -5 60% -3 77.24 0.0
08 09:55 W 44 G 59 16.09 Mostly Cloudy and Windy BKN040 BKN048 2 -5 60% -5 77.19 0.0
08 09:35 NW 44 G 57 16.09 Partly Cloudy and Windy SCT038 SCT048 1 -5 65% -6 77.19 0.0
08 09:15 W 31 G 50 16.09 Partly Cloudy SCT038 1 -5 65% -5 77.19 0.0
08 08:55 NW 43 G 50 16.09 Fair and Windy CLR 0 -5 69% -7 77.17 0.0
08 08:35 W 39 G 54 16.09 Fair and Breezy CLR 0 -5 69% -7 77.17 0.0
08 08:15 W 41 16.09 Fair and Breezy CLR 0 -6 64% -7 77.19 0.0
08 07:55 W 35 16.09 Fair and Breezy CLR 0 -6 64% -7 77.19 0.0
08 07:35 NW 41 G 46 16.09 Fair and Breezy CLR -1 -6 69% -8 77.19 0.0
08 07:15 NW 39 16.09 Fair and Breezy CLR -1 -6 69% -8 77.17 0.0
08 06:55 NW 48 G 59 16.09 Fair and Windy CLR -1 -6 69% -9 77.11 0.0
08 06:35 NW 50 16.09 Fair and Windy CLR -1 -5 75% -9 77.11 0.0
08 06:15 NW 50 16.09 Fair and Windy CLR -1 -5 75% -9 77.11 0.0
08 05:55 NW 48 16.09 Fair and Windy CLR -1 -5 75% -9 77.06 0.0
08 05:35 NW 46 16.09 Fair and Windy CLR -1 -5 75% -9 77.09 0.0
08 05:15 NW 48 16.09 Fair and Windy CLR -1 -5 75% -9 77.06 0.0
08 04:55 NW 50 G 59 16.09 Fair and Windy CLR -1 -5 75% -9 77.09 0.0
08 04:35 NW 50 16.09 Fair and Windy CLR -1 -5 75% -9 77.06 0.0
08 04:15 NW 46 16.09 Fair and Windy CLR -1 -5 75% -9 77.09 0.0
08 03:55 NW 44 16.09 Fair and Windy CLR -1 -5 75% -9 77.09 0.0
08 03:35 NW 52 G 61 16.09 Partly Cloudy and Windy SCT050 0 -5 69% -8 77.09 0.0
08 03:15 NW 50 16.09 Fair and Windy CLR 0 -5 69% -8 77.11 0.0
08 02:55 NW 48 G 54 16.09 Partly Cloudy and Windy SCT060 -1 -5 75% -9 77.09 0.0
08 02:35 NW 46 16.09 Partly Cloudy and Windy SCT060 0 -5 69% -7 77.11 0.0
08 02:15 NW 43 G 54 16.09 Fair and Windy CLR 0 -5 69% -7 77.11 0.0
08 01:55 NW 54 16.09 Fair and Windy CLR -1 -5 75% -9 77.11 0.0
08 01:35 NW 50 16.09 Partly Cloudy and Windy SCT050 SCT070 -1 -5 75% -9 77.11 0.0
08 01:15 NW 48 16.09 Mostly Cloudy and Windy SCT044 BKN050 BKN070 0 -5 69% -8 77.17 0.0
08 00:55 NW 48 G 59 16.09 Fair and Windy CLR 0 -5 69% -8 77.17 0.0
08 00:35 NW 50 G 57 16.09 Partly Cloudy and Windy SCT042 0 -5 69% -8 77.17 0.0
08 00:15 NW 50 G 61 16.09 Partly Cloudy and Windy SCT039 SCT045 SCT060 0 -5 69% -8 77.17 0.0
07 23:55 NW 50 G 59 16.09 Partly Cloudy and Windy SCT048 SCT060 SCT070 0 -5 69% -8 77.17 0.0
07 23:35 NW 35 G 48 16.09 Partly Cloudy and Breezy SCT034 0 -5 69% -7 77.22 0.0
07 23:15 NW 37 G 50 16.09 Fair and Breezy CLR 0 -5 69% -7 77.19 0.0
07 22:55 NW 43 G 52 16.09 Partly Cloudy and Windy SCT070 0 -5 69% -7 77.19 0.0
07 22:35 NW 46 G 56 16.09 Partly Cloudy and Windy SCT050 SCT070 0 -5 69% -7 77.19 0.0
07 22:15 NW 33 G 50 16.09 Mostly Cloudy and Breezy SCT036 SCT046 BKN055 0 -5 69% -6 77.24 0.0
07 21:55 NW 35 G 43 16.09 Mostly Cloudy and Breezy SCT040 SCT048 BKN060 0 -6 64% -7 77.24 0.0
07 21:35 W 33 16.09 Overcast and Breezy BKN040 BKN048 OVC080 1 -6 60% -5 77.24 0.0
07 21:15 W 30 16.09 Overcast BKN042 OVC048 1 -5 65% -5 77.24 0.0
07 20:55 NW 33 16.09 Overcast and Breezy BKN045 OVC050 1 -5 65% -5 77.22 0.0
07 20:35 NW 35 G 50 16.09 Overcast and Breezy SCT043 SCT049 OVC075 1 -6 60% -5 77.19 0.0
07 20:15 NW 41 16.09 Overcast and Breezy SCT060 OVC070 1 -5 65% -6 77.17 0.0
07 19:55 NW 43 G 56 16.09 Partly Cloudy and Windy SCT060 SCT070 1 -5 65% -6 77.17 0.0
07 19:35 NW 44 G 59 16.09 Partly Cloudy and Windy SCT060 2 -5 60% -5 77.17 0.0
07 19:15 NW 50 16.09 Partly Cloudy and Windy SCT042 SCT050 SCT075 2 -5 60% -5 77.17 0.0
07 18:55 NW 33 G 48 16.09 Mostly Cloudy and Breezy BKN075 2 -5 60% -4 77.17 0.0
07 18:35 NW 48 G 61 16.09 Mostly Cloudy and Windy SCT060 BKN075 2 -6 56% -5 77.17 0.0
07 18:15 NW 44 G 63 16.09 Overcast and Windy SCT050 BKN060 OVC070 2 -7 52% -5 77.17 0.0
07 17:55 NW 48 G 54 16.09 Overcast and Windy BKN060 OVC070 2 -6 56% -5 77.17 0.0
07 17:35 NW 39 G 50 16.09 Overcast and Breezy SCT048 SCT060 OVC075 2 -7 52% -4 77.17 0.0
07 17:15 NW 33 G 44 16.09 Mostly Cloudy and Breezy SCT046 BKN055 BKN075 2 -6 56% -4 77.17 0.0
07 16:55 W 44 G 70 16.09 Mostly Cloudy and Windy SCT044 SCT055 BKN065 2 -6 56% -5 77.11 0.0
07 16:35 W 43 G 50 16.09 Mostly Cloudy and Windy SCT042 SCT060 BKN065 2 -5 60% -4 77.14 0.0
07 16:15 NW 46 G 63 16.09 Partly Cloudy and Windy SCT050 SCT055 2 -5 60% -5 77.17 0.0
07 15:55 W 57 G 74 16.09 Partly Cloudy and Windy SCT041 SCT048 SCT065 2 -5 60% -5 77.14 0.0
07 15:35 W 52 G 76 16.09 Mostly Cloudy and Windy SCT038 BKN043 BKN050 2 -5 60% -5 77.17 0.0
07 15:15 NW 50 G 61 16.09 Mostly Cloudy and Windy SCT038 BKN047 BKN060 2 -5 60% -5 77.17 0.0
07 14:55 W 31 G 56 16.09 Mostly Cloudy SCT031 BKN038 BKN047 2 -5 60% -4 77.17 0.0
07 14:35 SW 31 G 43 16.09 Overcast SCT031 BKN038 OVC046 1 -4 70% -5 77.19 0.0
07 14:15 W 33 G 48 16.09 Mostly Cloudy and Breezy SCT029 SCT036 BKN045 1 -5 65% -5 77.22 0.0
07 13:55 W 30 G 39 16.09 Partly Cloudy SCT026 SCT031 0 -5 69% -6 77.22 0.0
07 13:35 W 30 G 48 16.09 Fair CLR 0 -5 69% -6 77.22 0.0
07 13:15 W 33 G 46 16.09 Fair and Breezy CLR 0 -5 69% -6 77.24 0.0
07 12:55 W 37 G 46 16.09 Fair and Breezy CLR 0 -6 64% -7 77.22 0.0
07 12:35 W 41 16.09 Fair and Breezy CLR -1 -6 69% -8 77.22 0.0
07 12:15 W 39 G 50 16.09 Fair and Breezy CLR -1 -6 69% -8 77.22 0.0
07 11:55 W 41 16.09 Fair and Breezy CLR -2 -7 69% -10 77.24 0.0
07 11:35 W 31 16.09 Fair CLR -2 -6 74% -9 77.24 0.0
07 11:15 W 39 16.09 Fair and Breezy CLR -2 -8 64% -9 77.24 0.0
07 10:55 W 35 G 41 16.09 Fair and Breezy CLR -3 -8 69% -10 77.24 0.0
07 10:35 W 33 G 39 16.09 Fair and Breezy CLR -3 -8 69% -10 77.24 0.0
Date Time (mdt) Wind (kph) Vis. (km) Weather Sky Cond. Air Dwpt Max. Min. Relative Humidity Wind Chill (°C) Heat Index (°C) altimeter (cm) sea level (mb) 1 hr 3 hr 6 hr
6 hour
Temperature (ºC) Pressure Precipitation (cm)